Time;durP1;ratioP1;P1;durP2;ratioP2;P2;SDS_P1;SDS_P2;PMS_P1;PMS_P2;Temp;Humidity;BMP_temperature;BMP_pressure;BME280_temperature;BME280_humidity;BME280_pressure;Samples;Min_cycle;Max_cycle;Signal;HPM_P1;HPM_P2
2022/09/16 00:00:51;;;;;;;5.90;5.50;;;16.60;61.50;;;;;;20678;6847;117340;-83
2022/09/16 00:03:17;;;;;;;6.72;6.22;;;16.50;61.90;;;;;;20485;6847;312330;-84
2022/09/16 00:05:46;;;;;;;6.15;5.60;;;16.70;61.20;;;;;;20585;6847;117640;-87
2022/09/16 00:08:15;;;;;;;5.93;5.47;;;16.70;61.20;;;;;;20683;6845;118747;-84
2022/09/16 00:10:42;;;;;;;5.00;4.70;;;16.40;62.20;;;;;;20697;6846;118451;-84
2022/09/16 00:13:06;;;;;;;5.27;4.87;;;16.40;62.20;;;;;;20693;6846;122772;-84
2022/09/16 00:15:32;;;;;;;5.80;5.40;;;16.30;62.60;;;;;;20710;6846;121313;-84
2022/09/16 00:17:59;;;;;;;7.90;5.30;;;16.20;63.00;;;;;;20709;6846;118861;-84
2022/09/16 00:20:25;;;;;;;5.30;5.00;;;16.10;63.50;;;;;;20545;6846;118371;-85
2022/09/16 00:22:51;;;;;;;5.80;5.40;;;16.10;64.10;;;;;;20709;6846;118667;-84
2022/09/16 00:25:16;;;;;;;6.90;6.30;;;16.10;63.60;;;;;;20491;6846;312424;-84
2022/09/16 00:27:42;;;;;;;6.30;5.80;;;16.40;62.60;;;;;;20712;6847;117823;-84
2022/09/16 00:30:07;;;;;;;6.43;5.80;;;16.50;62.20;;;;;;20483;6847;295816;-84
2022/09/16 00:32:34;;;;;;;6.27;5.80;;;16.70;61.30;;;;;;20500;6847;278634;-86
2022/09/16 00:35:00;;;;;;;5.30;4.90;;;17.00;60.60;;;;;;20701;6847;118497;-84
2022/09/16 00:37:26;;;;;;;12.10;5.83;;;17.00;60.60;;;;;;20704;6847;117163;-87
2022/09/16 00:39:52;;;;;;;6.40;5.80;;;16.80;61.00;;;;;;20498;6847;307368;-84
2022/09/16 00:42:19;;;;;;;6.07;5.63;;;16.90;60.10;;;;;;20693;6847;118256;-87
2022/09/16 00:44:51;;;;;;;6.40;5.83;;;16.80;60.20;;;;;;20504;6847;278813;-87
2022/09/16 00:47:16;;;;;;;6.50;6.10;;;16.90;59.70;;;;;;20487;6847;307683;-87
2022/09/16 00:49:42;;;;;;;6.30;5.90;;;17.20;59.10;;;;;;20473;6847;307791;-85
2022/09/16 00:52:07;;;;;;;6.50;6.10;;;17.40;58.60;;;;;;20479;6847;279115;-84
2022/09/16 00:54:33;;;;;;;5.72;5.43;;;17.50;58.30;;;;;;20703;6847;118621;-85
2022/09/16 00:56:59;;;;;;;6.93;6.33;;;17.30;59.10;;;;;;20487;6847;308673;-91
2022/09/16 00:59:28;;;;;;;7.23;6.57;;;17.30;59.10;;;;;;20489;6847;309093;-84
2022/09/16 01:01:54;;;;;;;6.47;6.05;;;17.40;58.50;;;;;;20483;6847;302052;-85
2022/09/16 01:04:23;;;;;;;6.07;5.57;;;17.60;58.20;;;;;;20683;6847;118431;-84
2022/09/16 01:06:48;;;;;;;6.20;5.70;;;17.40;58.70;;;;;;20478;6847;308346;-84
2022/09/16 01:09:15;;;;;;;6.50;6.10;;;17.50;58.10;;;;;;20498;6847;278275;-89
2022/09/16 01:11:40;;;;;;;6.87;6.47;;;17.50;58.10;;;;;;20481;6847;306498;-84
2022/09/16 01:16:58;;;;;;;6.17;4.93;;;17.50;57.90;;;;;;20685;6847;121189;-84
2022/09/16 01:19:38;;;;;;;5.70;5.30;;;17.00;58.80;;;;;;20489;6845;311962;-84
2022/09/16 01:22:13;;;;;;;6.00;5.40;;;17.10;58.80;;;;;;20453;6846;289749;-84
2022/09/16 01:24:42;;;;;;;5.67;5.30;;;17.30;58.00;;;;;;20667;6846;117459;-85
2022/09/16 01:27:16;;;;;;;6.97;6.37;;;17.20;58.50;;;;;;20486;6846;307367;-84
2022/09/16 01:29:49;;;;;;;7.37;6.30;;;17.20;58.40;;;;;;20493;6846;277829;-84
2022/09/16 01:32:28;;;;;;;6.80;6.40;;;17.40;58.00;;;;;;19814;6846;298861;-84
2022/09/16 01:34:57;;;;;;;6.83;6.40;;;17.60;57.50;;;;;;20540;6846;306588;-84
2022/09/16 01:37:22;;;;;;;6.95;6.35;;;17.70;57.30;;;;;;20513;6846;337576;-84
2022/09/16 01:39:52;;;;;;;6.53;5.93;;;17.90;57.10;;;;;;20751;6847;118030;-84
2022/09/16 01:42:20;;;;;;;7.87;5.77;;;17.60;57.60;;;;;;20699;6847;150759;-84
2022/09/16 01:44:51;;;;;;;5.50;5.00;;;17.20;58.50;;;;;;20741;6847;116371;-84
2022/09/16 01:47:20;;;;;;;5.77;5.27;;;16.90;59.40;;;;;;20026;6847;126565;-84
2022/09/16 01:49:45;;;;;;;6.75;6.20;;;16.60;60.20;;;;;;20521;6847;277228;-84
2022/09/16 01:52:18;;;;;;;6.13;5.47;;;16.80;59.80;;;;;;20725;6847;118531;-84
2022/09/16 01:55:01;;;;;;;6.68;6.18;;;16.80;59.90;;;;;;20528;6847;330983;-84
2022/09/16 01:57:27;;;;;;;5.37;5.07;;;16.90;59.50;;;;;;20761;6847;116846;-84
2022/09/16 01:59:55;;;;;;;6.33;5.93;;;16.90;59.80;;;;;;20544;6847;335339;-83
2022/09/16 02:02:31;;;;;;;7.37;6.82;;;17.00;59.30;;;;;;20536;6847;329547;-83
2022/09/16 02:04:56;;;;;;;6.10;5.73;;;17.20;58.40;;;;;;20754;6847;117972;-84
2022/09/16 02:07:22;;;;;;;6.23;5.70;;;17.10;58.80;;;;;;20770;6847;116846;-84
2022/09/16 02:09:49;;;;;;;6.87;6.40;;;16.80;59.50;;;;;;20545;6847;307269;-84
2022/09/16 02:12:14;;;;;;;7.80;5.60;;;16.90;59.40;;;;;;20746;6847;117814;-84
2022/09/16 02:14:40;;;;;;;6.00;5.55;;;16.90;59.70;;;;;;20738;6847;117428;-84
2022/09/16 02:17:06;;;;;;;5.63;5.23;;;16.50;60.70;;;;;;20775;6847;121434;-84
2022/09/16 02:19:38;;;;;;;6.73;6.17;;;16.50;60.60;;;;;;20568;6847;278190;-83
2022/09/16 02:22:04;;;;;;;6.73;6.03;;;16.60;60.10;;;;;;20519;6847;277689;-84
2022/09/16 02:24:29;;;;;;;5.60;5.20;;;17.00;59.30;;;;;;20762;6847;116488;-85
2022/09/16 02:26:55;;;;;;;8.43;4.77;;;16.90;59.20;;;;;;20782;6847;116624;-84
2022/09/16 02:29:20;;;;;;;5.87;5.30;;;16.70;59.90;;;;;;20778;6847;117664;-84
2022/09/16 02:31:46;;;;;;;6.77;5.70;;;16.50;60.40;;;;;;20745;6846;117184;-84
2022/09/16 02:34:12;;;;;;;5.97;5.30;;;16.30;60.60;;;;;;20733;6846;116287;-84
2022/09/16 02:36:37;;;;;;;6.27;5.80;;;16.10;60.90;;;;;;20538;6846;306712;-84
2022/09/16 02:39:09;;;;;;;5.57;5.17;;;16.30;61.00;;;;;;20761;6846;116754;-84
2022/09/16 02:41:34;;;;;;;6.50;5.93;;;16.30;60.90;;;;;;20561;6846;308103;-84
2022/09/16 02:44:00;;;;;;;7.63;5.27;;;16.60;60.20;;;;;;20730;6846;117798;-84
2022/09/16 02:46:39;;;;;;;5.73;4.83;;;16.60;60.30;;;;;;20726;6846;117850;-85
2022/09/16 02:49:34;;;;;;;6.07;5.67;;;16.40;60.60;;;;;;20701;6846;117229;-84
2022/09/16 02:52:03;;;;;;;5.50;5.10;;;16.20;61.10;;;;;;20740;6847;131589;-84
2022/09/16 02:54:35;;;;;;;6.10;5.62;;;16.00;61.80;;;;;;19697;6847;288232;-84
2022/09/16 02:57:02;;;;;;;6.00;5.60;;;16.30;61.30;;;;;;20463;6847;278282;-85
2022/09/16 02:59:27;;;;;;;5.63;5.13;;;16.60;60.00;;;;;;20688;6847;116694;-84
2022/09/16 03:01:53;;;;;;;5.95;5.45;;;16.60;60.00;;;;;;20486;6847;283248;-84
2022/09/16 03:04:18;;;;;;;6.57;6.10;;;16.80;59.40;;;;;;20470;6847;436485;-84
2022/09/16 03:06:44;;;;;;;5.30;5.00;;;17.00;58.40;;;;;;20700;6847;121291;-84
2022/09/16 03:09:10;;;;;;;6.23;5.73;;;16.90;58.70;;;;;;20490;6847;282712;-84
2022/09/16 03:11:48;;;;;;;6.55;5.72;;;16.90;58.20;;;;;;20682;6847;117997;-84
2022/09/16 03:14:14;;;;;;;6.80;6.30;;;16.90;58.10;;;;;;20334;6847;287168;-84
2022/09/16 03:17:06;;;;;;;6.57;5.97;;;16.90;58.10;;;;;;20485;6847;288244;-85
2022/09/16 03:19:59;;;;;;;5.70;5.40;;;17.10;58.00;;;;;;20723;6847;117355;-87
2022/09/16 03:22:47;;;;;;;5.20;4.90;;;16.90;59.00;;;;;;20693;6847;117923;-87
2022/09/16 03:25:42;;;;;;;5.20;5.00;;;16.50;59.20;;;;;;20528;6847;117313;-86
2022/09/16 03:28:08;;;;;;;5.80;5.30;;;16.20;60.00;;;;;;20677;6847;118039;-86
2022/09/16 03:30:33;;;;;;;5.33;4.97;;;16.00;61.20;;;;;;20527;6847;117385;-87
2022/09/16 03:32:59;;;;;;;6.18;5.68;;;15.90;61.00;;;;;;20476;6847;308795;-86
2022/09/16 03:35:44;;;;;;;6.80;6.30;;;16.20;60.80;;;;;;20476;6847;336849;-86
2022/09/16 03:38:10;;;;;;;6.20;5.70;;;16.60;59.80;;;;;;20679;6847;117829;-87
2022/09/16 03:40:36;;;;;;;5.70;5.40;;;16.60;59.80;;;;;;20707;6847;117441;-86
2022/09/16 03:43:02;;;;;;;6.60;6.20;;;16.40;60.30;;;;;;20496;6845;295870;-86
2022/09/16 03:45:28;;;;;;;6.57;6.07;;;16.60;60.20;;;;;;20679;6846;117638;-87
2022/09/16 03:47:53;;;;;;;7.00;6.50;;;16.60;60.30;;;;;;20502;6846;308646;-87
2022/09/16 03:50:19;;;;;;;6.65;6.25;;;16.70;59.50;;;;;;20484;6846;341419;-87
2022/09/16 03:52:44;;;;;;;6.13;5.73;;;17.10;58.60;;;;;;20705;6846;117257;-87
2022/09/16 03:55:11;;;;;;;5.73;5.37;;;16.80;59.50;;;;;;20707;6846;117885;-87
2022/09/16 03:57:36;;;;;;;6.70;6.30;;;16.80;59.50;;;;;;20483;6846;277792;-86
2022/09/16 04:00:02;;;;;;;6.57;6.07;;;16.90;59.00;;;;;;20466;6846;280329;-86
2022/09/16 04:02:27;;;;;;;5.17;4.90;;;17.20;58.20;;;;;;20687;6847;121533;-86
2022/09/16 04:04:54;;;;;;;5.80;5.40;;;16.90;59.10;;;;;;20707;6847;123125;-87
2022/09/16 04:07:19;;;;;;;5.97;5.30;;;16.90;59.10;;;;;;20715;6847;117384;-86
2022/09/16 04:09:46;;;;;;;6.07;5.70;;;16.70;59.60;;;;;;20711;6847;116817;-87
2022/09/16 04:12:12;;;;;;;5.73;5.30;;;16.50;60.20;;;;;;20694;6847;117535;-86
2022/09/16 04:14:37;;;;;;;7.37;6.80;;;16.40;60.50;;;;;;20490;6847;338127;-86
2022/09/16 04:17:03;;;;;;;6.73;6.00;;;16.60;60.00;;;;;;20711;6847;117702;-86
2022/09/16 04:19:29;;;;;;;6.80;6.20;;;16.70;60.10;;;;;;20705;6847;117332;-86
2022/09/16 04:21:55;;;;;;;7.50;6.90;;;16.70;60.60;;;;;;20493;6847;307701;-87
2022/09/16 04:24:20;;;;;;;8.17;7.63;;;16.70;60.00;;;;;;20699;6847;117780;-87
2022/09/16 04:26:46;;;;;;;7.25;6.60;;;16.80;60.10;;;;;;20686;6847;117827;-86
2022/09/16 04:29:12;;;;;;;5.93;5.53;;;16.60;60.50;;;;;;20708;6847;117129;-86
2022/09/16 04:31:37;;;;;;;7.90;7.30;;;16.50;60.80;;;;;;20516;6847;313421;-85
2022/09/16 04:34:03;;;;;;;6.93;6.40;;;16.70;60.20;;;;;;20695;6847;121323;-85
2022/09/16 04:36:28;;;;;;;7.55;6.95;;;16.70;60.10;;;;;;20510;6847;299984;-85
2022/09/16 04:38:54;;;;;;;7.05;6.60;;;16.80;59.60;;;;;;20509;6847;303152;-85
2022/09/16 04:41:19;;;;;;;7.30;6.77;;;17.10;59.80;;;;;;20507;6847;340722;-85
2022/09/16 04:43:46;;;;;;;6.20;5.70;;;17.30;58.80;;;;;;20695;6847;120840;-84
2022/09/16 04:46:12;;;;;;;6.83;6.40;;;17.20;59.10;;;;;;20670;6846;116298;-84
2022/09/16 04:48:37;;;;;;;7.50;6.80;;;16.90;59.80;;;;;;20702;6847;117316;-84
2022/09/16 04:51:07;;;;;;;7.43;6.93;;;16.60;60.30;;;;;;20470;6847;337015;-83
2022/09/16 04:53:32;;;;;;;7.43;6.93;;;16.80;59.90;;;;;;20480;6845;341856;-83
2022/09/16 04:56:03;;;;;;;6.17;5.67;;;17.00;59.30;;;;;;20697;6846;118261;-81
2022/09/16 04:58:30;;;;;;;5.90;5.50;;;17.00;59.70;;;;;;20689;6846;118093;-83
2022/09/16 05:00:56;;;;;;;6.57;6.17;;;16.70;60.30;;;;;;20744;6846;119362;-83
2022/09/16 05:03:24;;;;;;;6.27;5.83;;;16.40;61.30;;;;;;20745;6846;117544;-83
2022/09/16 05:05:50;;;;;;;6.50;6.00;;;16.40;61.30;;;;;;20733;6846;118254;-83
2022/09/16 05:08:15;;;;;;;6.90;6.20;;;16.30;61.70;;;;;;20474;6846;309039;-83
2022/09/16 05:10:41;;;;;;;6.67;6.23;;;16.60;61.20;;;;;;20712;6846;116955;-84
2022/09/16 05:13:07;;;;;;;7.17;6.67;;;16.60;61.10;;;;;;20489;6847;277771;-85
2022/09/16 05:15:32;;;;;;;6.87;6.47;;;16.90;60.60;;;;;;20701;6847;118735;-84
2022/09/16 05:17:59;;;;;;;7.40;6.90;;;16.90;60.40;;;;;;20477;6847;279199;-84
2022/09/16 05:20:25;;;;;;;6.90;6.40;;;17.10;59.60;;;;;;20706;6847;124179;-84
2022/09/16 05:22:53;;;;;;;6.30;5.90;;;16.90;60.30;;;;;;20706;6846;117565;-88
2022/09/16 05:25:20;;;;;;;8.57;5.90;;;16.70;60.80;;;;;;20709;6847;122054;-86
2022/09/16 05:27:46;;;;;;;6.53;5.80;;;16.70;60.80;;;;;;20506;6847;279207;-85
2022/09/16 05:30:13;;;;;;;5.87;5.40;;;16.90;60.80;;;;;;20465;6847;308268;-86
2022/09/16 05:32:36;;;;;;;6.43;5.10;;;17.30;60.10;;;;;;20706;6847;118160;-85
2022/09/16 05:35:02;;;;;;;5.80;5.30;;;17.30;60.10;;;;;;20499;6847;338676;-85
2022/09/16 05:37:27;;;;;;;6.57;5.97;;;17.30;60.00;;;;;;20519;6847;305816;-86
2022/09/16 05:39:54;;;;;;;6.40;5.90;;;17.60;59.20;;;;;;20777;6847;116369;-88
2022/09/16 05:42:18;;;;;;;7.43;6.93;;;17.50;59.20;;;;;;20516;6847;282459;-86
2022/09/16 05:44:44;;;;;;;7.10;6.60;;;17.50;58.40;;;;;;20523;6847;336534;-87
2022/09/16 05:47:10;;;;;;;6.73;6.30;;;17.70;58.00;;;;;;20722;6847;117308;-89
2022/09/16 05:49:37;;;;;;;7.30;6.90;;;17.60;58.30;;;;;;20507;6847;307850;-89
2022/09/16 05:52:02;;;;;;;7.80;7.20;;;17.60;57.80;;;;;;20479;6847;308708;-90
2022/09/16 05:54:28;;;;;;;7.30;6.73;;;17.80;57.20;;;;;;20708;6847;119139;-87
2022/09/16 05:56:53;;;;;;;6.80;6.30;;;17.60;57.50;;;;;;20706;6847;117251;-87
2022/09/16 05:59:19;;;;;;;7.17;6.57;;;17.20;58.40;;;;;;20699;6847;118128;-88
2022/09/16 06:01:45;;;;;;;7.20;6.60;;;16.90;59.40;;;;;;20505;6847;302113;-87
2022/09/16 06:04:10;;;;;;;5.50;5.10;;;17.10;59.20;;;;;;20702;6845;117436;-86
2022/09/16 06:06:36;;;;;;;6.47;4.70;;;17.10;59.20;;;;;;20509;6846;281921;-86
2022/09/16 06:09:07;;;;;;;5.32;4.93;;;17.30;57.60;;;;;;20500;6846;312306;-88
2022/09/16 06:11:33;;;;;;;11.63;5.30;;;17.50;56.10;;;;;;20695;6846;118154;-87
2022/09/16 06:13:59;;;;;;;5.18;4.78;;;17.50;56.50;;;;;;20489;6846;318309;-86
2022/09/16 06:16:24;;;;;;;4.23;3.87;;;17.50;56.50;;;;;;20678;6846;118681;-86
2022/09/16 06:18:50;;;;;;;4.83;4.50;;;17.40;56.90;;;;;;20499;6846;339445;-87
2022/09/16 06:21:15;;;;;;;5.20;4.00;;;17.50;55.80;;;;;;20694;6846;120113;-85
2022/09/16 06:23:41;;;;;;;6.70;3.87;;;17.40;55.80;;;;;;20690;6846;120380;-84
2022/09/16 06:26:06;;;;;;;21.50;4.90;;;17.10;56.10;;;;;;20458;6847;279024;-86
2022/09/16 06:28:32;;;;;;;9.00;4.40;;;17.10;56.00;;;;;;20500;6847;278439;-87
2022/09/16 06:31:04;;;;;;;5.23;4.50;;;17.40;55.60;;;;;;20498;6847;278162;-87
2022/09/16 06:33:29;;;;;;;8.00;4.47;;;17.60;54.60;;;;;;20708;6847;120855;-86
2022/09/16 06:35:56;;;;;;;5.23;4.23;;;17.30;54.70;;;;;;20502;6847;309238;-86
2022/09/16 06:38:20;;;;;;;5.03;4.53;;;17.20;55.50;;;;;;20498;6847;308537;-87
2022/09/16 06:40:46;;;;;;;5.37;4.70;;;17.30;56.30;;;;;;20505;6847;301929;-84
2022/09/16 06:43:12;;;;;;;5.63;5.07;;;17.30;55.90;;;;;;20512;6847;286365;-85
2022/09/16 06:45:38;;;;;;;6.37;5.70;;;17.40;55.60;;;;;;20505;6847;307286;-85
2022/09/16 06:48:04;;;;;;;4.57;4.17;;;17.40;56.00;;;;;;20709;6847;123371;-85
2022/09/16 06:50:30;;;;;;;5.50;4.20;;;17.10;56.70;;;;;;20708;6847;117248;-86
2022/09/16 06:52:55;;;;;;;4.77;4.40;;;16.70;58.30;;;;;;20480;6847;307766;-85
2022/09/16 06:55:21;;;;;;;6.90;4.10;;;16.70;57.60;;;;;;20716;6847;118897;-83
2022/09/16 06:57:46;;;;;;;5.10;4.70;;;16.50;57.70;;;;;;20528;6847;311786;-83
2022/09/16 07:00:13;;;;;;;5.10;4.70;;;16.60;57.10;;;;;;20503;6847;305855;-83
2022/09/16 07:02:39;;;;;;;4.87;4.47;;;16.80;56.90;;;;;;20525;6847;278707;-83
2022/09/16 07:05:05;;;;;;;6.07;3.70;;;17.00;56.40;;;;;;20716;6847;117558;-84
2022/09/16 07:07:32;;;;;;;4.73;3.37;;;16.70;56.60;;;;;;20726;6847;118955;-85
2022/09/16 07:09:57;;;;;;;3.67;3.37;;;16.40;57.20;;;;;;20724;6847;117665;-85
2022/09/16 07:12:22;;;;;;;5.03;3.60;;;16.10;57.90;;;;;;20495;6847;278166;-85
2022/09/16 07:14:48;;;;;;;3.67;3.43;;;16.20;57.60;;;;;;20725;6847;117747;-84
2022/09/16 07:17:15;;;;;;;4.10;3.50;;;16.10;57.70;;;;;;20724;6845;117156;-84
2022/09/16 07:19:41;;;;;;;3.90;3.10;;;15.80;58.30;;;;;;20715;6846;119140;-85
2022/09/16 07:22:06;;;;;;;4.20;3.80;;;15.60;58.80;;;;;;20693;6846;117839;-84
2022/09/16 07:24:32;;;;;;;4.37;3.90;;;15.30;59.10;;;;;;20699;6846;121226;-84
2022/09/16 07:26:57;;;;;;;7.40;4.23;;;15.10;59.90;;;;;;20718;6846;117677;-84
2022/09/16 07:29:23;;;;;;;6.20;5.00;;;14.90;60.40;;;;;;20509;6846;341947;-84
2022/09/16 07:31:48;;;;;;;27.15;5.78;;;15.10;61.00;;;;;;20714;6846;117365;-85
2022/09/16 07:34:14;;;;;;;37.97;8.37;;;15.10;61.10;;;;;;20700;6846;121739;-84
2022/09/16 07:36:40;;;;;;;9.77;4.80;;;15.00;61.60;;;;;;20727;6847;119082;-84
2022/09/16 07:39:05;;;;;;;10.43;4.90;;;14.90;62.30;;;;;;20724;6847;117150;-84
2022/09/16 07:41:31;;;;;;;18.30;6.50;;;14.80;62.90;;;;;;20537;6847;307485;-83
2022/09/16 07:43:57;;;;;;;6.97;4.85;;;15.00;63.00;;;;;;20734;6847;118563;-84
2022/09/16 07:46:22;;;;;;;9.47;4.87;;;15.10;62.60;;;;;;20696;6847;117838;-83
2022/09/16 07:48:47;;;;;;;22.08;7.78;;;15.00;62.60;;;;;;20528;6847;277837;-83
2022/09/16 07:51:16;;;;;;;17.25;7.87;;;15.20;62.40;;;;;;20730;6847;116771;-83
2022/09/16 07:53:42;;;;;;;7.25;5.57;;;15.20;62.40;;;;;;20501;6847;307542;-83
2022/09/16 07:56:07;;;;;;;10.30;6.30;;;15.40;62.20;;;;;;20482;6847;307903;-84
2022/09/16 07:58:33;;;;;;;10.03;5.43;;;15.70;61.20;;;;;;20713;6847;119227;-85
2022/09/16 08:00:59;;;;;;;6.43;5.67;;;15.60;61.30;;;;;;20718;6847;121180;-83
2022/09/16 08:03:24;;;;;;;80.68;14.23;;;15.30;61.70;;;;;;20508;6847;307797;-83
2022/09/16 08:05:50;;;;;;;16.27;8.33;;;15.40;62.10;;;;;;20496;6847;278733;-84
2022/09/16 08:08:15;;;;;;;14.83;7.00;;;15.70;62.30;;;;;;20498;6847;343545;-83
2022/09/16 08:10:42;;;;;;;7.22;6.00;;;15.90;62.20;;;;;;20736;6847;118095;-82
2022/09/16 08:13:06;;;;;;;10.15;6.80;;;15.80;62.20;;;;;;20726;6847;118611;-82
2022/09/16 08:15:32;;;;;;;5.30;4.90;;;15.50;62.60;;;;;;20716;6847;117456;-82
2022/09/16 08:17:58;;;;;;;5.00;4.60;;;15.30;63.30;;;;;;20721;6847;117230;-82
2022/09/16 08:20:24;;;;;;;5.20;4.70;;;15.10;63.70;;;;;;20488;6847;307388;-85
2022/09/16 08:22:49;;;;;;;6.13;4.50;;;15.20;63.10;;;;;;20512;6847;311248;-84
2022/09/16 08:25:18;;;;;;;6.37;4.03;;;15.50;62.30;;;;;;20492;6847;341637;-80
2022/09/16 08:27:43;;;;;;;5.13;3.40;;;15.80;61.60;;;;;;20715;6845;117245;-82
2022/09/16 08:30:10;;;;;;;4.33;3.23;;;15.30;62.10;;;;;;20706;6846;118358;-81
2022/09/16 08:32:36;;;;;;;7.67;3.73;;;15.00;62.80;;;;;;20720;6846;117531;-83
2022/09/16 08:35:02;;;;;;;7.57;3.77;;;15.00;62.70;;;;;;20718;6846;118213;-82
2022/09/16 08:37:27;;;;;;;4.97;3.90;;;14.80;63.40;;;;;;20733;6846;118224;-85
2022/09/16 08:39:53;;;;;;;4.72;4.32;;;14.60;64.00;;;;;;20526;6846;281035;-83
2022/09/16 08:42:28;;;;;;;4.17;3.70;;;14.80;64.30;;;;;;20714;6846;118947;-83
2022/09/16 08:45:25;;;;;;;5.33;3.73;;;14.90;64.40;;;;;;20509;6846;298002;-85
2022/09/16 08:48:06;;;;;;;3.73;3.37;;;15.10;63.40;;;;;;20737;6847;117343;-82
2022/09/16 08:50:32;;;;;;;4.57;3.60;;;15.10;63.70;;;;;;20723;6847;117438;-83
2022/09/16 08:52:58;;;;;;;4.72;3.70;;;15.00;64.50;;;;;;20504;6847;283413;-79
2022/09/16 08:55:24;;;;;;;3.77;3.50;;;15.20;65.70;;;;;;20492;6847;309144;-81
2022/09/16 08:57:52;;;;;;;65.37;7.30;;;15.60;64.10;;;;;;20679;6847;119539;-80
2022/09/16 09:00:18;;;;;;;9.07;3.53;;;15.70;63.90;;;;;;20665;6847;121253;-79
2022/09/16 09:03:07;;;;;;;4.00;3.70;;;15.50;64.10;;;;;;20467;6847;337737;-81
2022/09/16 09:05:33;;;;;;;4.93;4.07;;;16.00;63.30;;;;;;20505;6847;297983;-80
2022/09/16 09:08:12;;;;;;;4.82;3.80;;;16.00;63.30;;;;;;20488;6847;314281;-80
2022/09/16 09:10:47;;;;;;;4.50;4.10;;;16.30;62.30;;;;;;20076;6847;278686;-79
2022/09/16 09:13:13;;;;;;;4.20;3.80;;;16.50;59.80;;;;;;20499;6847;307362;-80
2022/09/16 09:15:48;;;;;;;15.23;4.85;;;16.70;59.80;;;;;;20475;6847;307768;-81
2022/09/16 09:18:13;;;;;;;3.70;3.50;;;16.80;59.70;;;;;;20688;6847;121829;-80
2022/09/16 09:20:50;;;;;;;11.20;4.50;;;16.60;59.90;;;;;;20485;6847;308669;-81
2022/09/16 09:23:42;;;;;;;11.95;4.30;;;16.50;59.70;;;;;;20491;6847;341313;-80
2022/09/16 09:26:21;;;;;;;11.50;5.00;;;16.50;59.50;;;;;;20674;6847;118849;-80
2022/09/16 09:29:00;;;;;;;3.40;3.20;;;16.50;59.50;;;;;;20706;6847;117364;-81
2022/09/16 09:31:35;;;;;;;8.23;4.27;;;16.20;60.10;;;;;;20507;6847;307051;-79
2022/09/16 09:34:04;;;;;;;3.97;3.60;;;16.20;59.00;;;;;;20333;6847;120041;-83
2022/09/16 09:36:46;;;;;;;4.60;4.20;;;16.10;59.50;;;;;;20508;6847;303340;-80
2022/09/16 09:39:48;;;;;;;4.00;3.70;;;16.10;59.90;;;;;;20698;6845;116713;-79
2022/09/16 09:42:27;;;;;;;3.87;3.50;;;16.00;60.30;;;;;;20706;6846;122155;-79
2022/09/16 09:44:53;;;;;;;4.85;4.45;;;15.80;61.30;;;;;;20216;6846;330009;-78
2022/09/16 09:47:19;;;;;;;4.63;4.33;;;15.90;61.20;;;;;;20761;6846;117919;-76
2022/09/16 09:49:45;;;;;;;3.73;3.53;;;15.70;61.80;;;;;;20557;6846;117525;-77
2022/09/16 09:52:16;;;;;;;4.10;3.80;;;15.70;61.80;;;;;;20705;6846;117633;-80
2022/09/16 09:54:43;;;;;;;5.07;4.67;;;15.60;62.20;;;;;;20490;6846;277836;-80
2022/09/16 09:57:28;;;;;;;5.07;4.60;;;15.70;62.10;;;;;;20531;6846;297277;-80
2022/09/16 10:00:09;;;;;;;6.30;4.63;;;16.10;61.20;;;;;;20759;6847;67400;-81
2022/09/16 10:05:55;;;;;;;6.47;5.00;;;16.10;61.80;;;;;;20600;6624;277886;-92
2022/09/16 10:08:32;;;;;;;4.23;3.90;;;16.10;61.80;;;;;;20888;6746;116954;-85
2022/09/16 10:11:20;;;;;;;4.90;3.80;;;16.00;61.80;;;;;;20911;6746;116886;-86
2022/09/16 10:13:59;;;;;;;5.05;4.65;;;15.90;62.20;;;;;;20644;6746;337732;-85
2022/09/16 10:16:36;;;;;;;5.07;4.67;;;16.10;61.10;;;;;;20657;6746;305800;-85
2022/09/16 10:19:15;;;;;;;5.40;5.00;;;16.60;61.30;;;;;;20662;6746;277640;-84
2022/09/16 10:21:54;;;;;;;4.13;3.90;;;17.00;61.90;;;;;;20737;6754;118665;-85
2022/09/16 10:24:29;;;;;;;5.03;4.57;;;17.10;61.90;;;;;;20808;6743;115285;-85
2022/09/16 10:27:28;;;;;;;6.07;3.77;;;17.00;62.20;;;;;;20868;6748;117099;-85
2022/09/16 10:30:14;;;;;;;4.50;4.10;;;17.00;63.00;;;;;;20607;6748;293307;-86
2022/09/16 10:32:56;;;;;;;4.60;4.20;;;17.30;60.30;;;;;;20664;6744;279735;-85
2022/09/16 10:35:32;;;;;;;3.83;3.58;;;17.90;60.80;;;;;;20345;6785;315902;-85
2022/09/16 10:38:11;;;;;;;4.10;3.70;;;18.30;59.90;;;;;;20639;6788;121412;-86
2022/09/16 10:40:59;;;;;;;4.30;4.10;;;18.30;59.10;;;;;;20498;6792;342166;-86
2022/09/16 10:43:33;;;;;;;4.03;3.83;;;18.40;57.70;;;;;;20473;6865;117469;-86
2022/09/16 10:46:09;;;;;;;6.10;5.65;;;18.30;57.80;;;;;;20312;6764;307633;-85
2022/09/16 10:48:44;;;;;;;4.07;3.87;;;18.30;57.50;;;;;;20595;6772;117669;-85
2022/09/16 10:51:23;;;;;;;4.53;4.13;;;18.10;57.80;;;;;;20669;6780;116589;-85
2022/09/16 10:53:58;;;;;;;4.00;3.70;;;17.80;58.60;;;;;;20531;6765;283286;-86
2022/09/16 10:56:34;;;;;;;4.25;3.95;;;17.90;57.80;;;;;;20642;6750;306618;-85
2022/09/16 10:59:09;;;;;;;3.97;3.62;;;18.00;57.50;;;;;;20463;6759;307162;-85
2022/09/16 11:01:52;;;;;;;3.90;3.60;;;18.20;57.20;;;;;;20611;6759;310928;-84
2022/09/16 11:04:53;;;;;;;4.80;4.40;;;18.30;57.00;;;;;;20753;6759;117282;-86
2022/09/16 11:07:35;;;;;;;5.87;5.40;;;18.10;57.50;;;;;;20830;6764;116908;-85
2022/09/16 11:10:52;;;;;;;5.10;4.70;;;17.70;58.40;;;;;;20571;6765;336677;-85
2022/09/16 11:13:30;;;;;;;3.63;3.43;;;17.70;58.40;;;;;;20804;6757;117193;-86
2022/09/16 11:16:16;;;;;;;4.23;3.93;;;17.70;58.70;;;;;;20491;6813;305759;-86
2022/09/16 11:19:05;;;;;;;4.80;3.85;;;17.60;58.30;;;;;;20486;6754;336467;-85
2022/09/16 11:22:13;;;;;;;4.33;3.97;;;17.90;58.20;;;;;;20186;6778;309340;-85
2022/09/16 11:25:16;;;;;;;3.87;3.50;;;17.90;58.10;;;;;;20716;6753;117951;-86
2022/09/16 11:28:21;;;;;;;3.73;3.30;;;17.90;58.10;;;;;;20812;6757;117553;-85
2022/09/16 11:30:59;;;;;;;4.28;3.90;;;17.50;59.20;;;;;;20441;6757;336238;-85
2022/09/16 11:34:12;;;;;;;6.57;3.60;;;17.80;59.30;;;;;;20983;6514;72019;-84
2022/09/16 11:36:39;;;;;;;4.57;4.27;;;18.00;59.60;;;;;;20278;6858;279466;-85
2022/09/16 11:39:28;;;;;;;4.37;4.07;;;18.00;59.60;;;;;;20464;6843;312941;-86
2022/09/16 11:42:00;;;;;;;5.90;4.37;;;18.20;58.10;;;;;;20462;6859;279971;-84
2022/09/16 11:45:02;;;;;;;5.68;4.40;;;18.40;57.10;;;;;;20543;6835;337564;-83
2022/09/16 11:47:48;;;;;;;4.63;3.97;;;18.60;56.70;;;;;;20746;6843;117418;-84
2022/09/16 11:50:14;;;;;;;4.90;4.50;;;18.40;57.50;;;;;;20565;6826;294718;-85
2022/09/16 11:53:13;;;;;;;5.03;4.50;;;18.40;58.20;;;;;;20731;6841;117500;-87
2022/09/16 11:56:01;;;;;;;5.00;4.50;;;18.40;58.20;;;;;;20718;6844;121473;-86
2022/09/16 11:58:30;;;;;;;5.10;4.32;;;18.10;59.00;;;;;;20528;6831;278834;-85
2022/09/16 12:00:56;;;;;;;5.10;4.70;;;18.30;58.00;;;;;;20508;6842;308620;-87
2022/09/16 12:03:28;;;;;;;4.87;4.43;;;18.50;57.20;;;;;;20470;6851;313619;-87
2022/09/16 12:05:53;;;;;;;4.00;3.60;;;18.80;57.50;;;;;;20664;6851;118523;-85
2022/09/16 12:08:22;;;;;;;3.90;3.60;;;18.70;57.70;;;;;;20659;6851;117568;-84
2022/09/16 12:10:44;;;;;;;4.50;4.20;;;18.50;58.30;;;;;;20455;6848;313413;-84
2022/09/16 12:13:10;;;;;;;3.70;3.45;;;18.60;58.00;;;;;;20486;6842;312761;-85
2022/09/16 12:15:39;;;;;;;3.60;3.40;;;18.90;56.50;;;;;;20711;6838;119100;-85
2022/09/16 12:18:14;;;;;;;4.25;3.75;;;18.90;57.00;;;;;;20507;6832;307223;-84
2022/09/16 12:20:40;;;;;;;2.40;2.20;;;19.00;57.30;;;;;;20699;6848;118550;-85
2022/09/16 12:23:13;;;;;;;2.23;1.93;;;18.90;57.00;;;;;;20690;6848;117562;-85
2022/09/16 12:25:42;;;;;;;2.23;2.13;;;18.50;56.90;;;;;;20680;6848;117369;-85
2022/09/16 12:28:16;;;;;;;2.05;1.95;;;18.50;56.80;;;;;;20108;6848;278386;-85
2022/09/16 12:30:41;;;;;;;2.40;2.30;;;18.70;53.10;;;;;;20730;6848;119423;-85
2022/09/16 12:33:17;;;;;;;2.12;1.95;;;18.70;53.60;;;;;;20517;6848;308515;-84
2022/09/16 12:35:56;;;;;;;2.13;2.03;;;18.80;52.40;;;;;;20740;6847;116935;-86
2022/09/16 12:38:22;;;;;;;3.20;2.10;;;19.00;52.30;;;;;;20484;6847;298653;-86
2022/09/16 12:40:51;;;;;;;3.87;1.80;;;19.00;52.30;;;;;;20764;6836;117242;-85
2022/09/16 12:43:40;;;;;;;1.83;1.73;;;19.00;52.90;;;;;;20738;6834;117321;-85
2022/09/16 12:46:27;;;;;;;64.00;6.87;;;18.90;53.30;;;;;;20739;6835;118135;-86
2022/09/16 12:49:15;;;;;;;2.87;1.67;;;18.80;53.80;;;;;;20538;6835;281113;-86
2022/09/16 12:51:50;;;;;;;2.13;1.80;;;19.00;50.30;;;;;;20772;6835;118396;-85
2022/09/16 12:54:56;;;;;;;2.30;1.70;;;19.00;51.10;;;;;;20704;6850;117614;-85
2022/09/16 12:57:54;;;;;;;3.57;2.00;;;18.80;51.20;;;;;;20544;6835;310746;-84
2022/09/16 13:00:20;;;;;;;7.50;2.70;;;18.90;50.00;;;;;;20559;6835;310548;-87